Time;durP1;ratioP1;P1;durP2;ratioP2;P2;SDS_P1;SDS_P2;PMS_P1;PMS_P2;Temp;Humidity;BMP_temperature;BMP_pressure;BME280_temperature;BME280_humidity;BME280_pressure;Samples;Min_cycle;Max_cycle;Signal;HPM_P1;HPM_P2
2022/08/26 00:01:26;;;;;;;14.37;13.00;;;21.60;99.90;;;;;;4937963;29;20429;-77
2022/08/26 00:03:52;;;;;;;18.40;16.40;;;21.70;99.90;;;;;;4937034;29;20521;-79
2022/08/26 00:06:18;;;;;;;18.20;16.30;;;21.60;99.90;;;;;;4936721;29;20228;-79
2022/08/26 00:08:45;;;;;;;19.00;17.10;;;21.70;99.90;;;;;;4938306;29;20417;-78
2022/08/26 00:11:11;;;;;;;19.60;17.40;;;21.60;99.90;;;;;;4936241;29;20201;-77
2022/08/26 00:13:37;;;;;;;29.63;25.10;;;21.60;99.90;;;;;;4936829;29;20402;-78
2022/08/26 00:16:05;;;;;;;31.80;28.57;;;21.50;99.90;;;;;;4937842;29;20414;-76
2022/08/26 00:18:30;;;;;;;32.30;28.67;;;21.60;99.90;;;;;;4936357;29;20481;-77
2022/08/26 00:20:56;;;;;;;36.17;32.30;;;21.60;99.90;;;;;;4936628;29;20466;-76
2022/08/26 00:23:22;;;;;;;41.90;37.50;;;21.60;99.90;;;;;;4920903;29;20658;-78
2022/08/26 00:25:48;;;;;;;40.43;36.03;;;21.60;99.90;;;;;;4937668;29;20178;-79
2022/08/26 00:28:13;;;;;;;40.87;36.60;;;21.60;99.90;;;;;;4936519;29;20663;-77
2022/08/26 00:30:40;;;;;;;41.00;36.93;;;21.60;99.90;;;;;;4935902;29;20441;-76
2022/08/26 00:33:06;;;;;;;43.47;38.90;;;21.60;99.90;;;;;;4937707;29;20185;-75
2022/08/26 00:35:33;;;;;;;48.23;43.23;;;21.60;99.90;;;;;;4937447;29;20456;-77
2022/08/26 00:38:00;;;;;;;50.37;45.37;;;21.60;99.90;;;;;;4937364;29;20418;-79
2022/08/26 00:40:34;;;;;;;49.70;44.40;;;21.60;99.90;;;;;;4936809;29;20481;-76
2022/08/26 00:43:01;;;;;;;54.97;49.10;;;21.50;99.90;;;;;;4937348;29;20419;-77
2022/08/26 00:45:33;;;;;;;55.13;49.13;;;21.50;99.90;;;;;;4935950;29;20441;-77
2022/08/26 00:48:02;;;;;;;61.27;55.17;;;21.50;99.90;;;;;;4937335;29;20464;-78
2022/08/26 00:50:34;;;;;;;62.13;54.60;;;21.50;99.90;;;;;;4936766;29;20450;-78
2022/08/26 00:53:03;;;;;;;62.63;55.63;;;21.40;99.90;;;;;;4937281;29;20481;-78
2022/08/26 00:55:34;;;;;;;60.40;54.20;;;21.40;99.90;;;;;;4937186;29;20461;-76
2022/08/26 00:58:00;;;;;;;59.07;52.77;;;21.30;99.90;;;;;;4937114;29;20992;-78
2022/08/26 01:00:29;;;;;;;60.63;54.20;;;21.20;99.90;;;;;;4936567;29;20465;-77
2022/08/26 01:02:56;;;;;;;63.67;57.07;;;21.20;99.90;;;;;;4935629;29;20429;-78
2022/08/26 01:05:22;;;;;;;67.70;60.60;;;21.20;99.90;;;;;;4936914;29;20488;-78
2022/08/26 01:07:49;;;;;;;67.07;59.87;;;21.10;99.90;;;;;;4935791;29;20810;-77
2022/08/26 01:10:26;;;;;;;62.03;55.43;;;21.10;99.90;;;;;;4936437;29;20524;-76
2022/08/26 01:12:59;;;;;;;62.00;54.80;;;21.00;99.90;;;;;;4936724;29;20410;-75
2022/08/26 01:15:30;;;;;;;63.67;56.90;;;21.00;99.90;;;;;;4935790;29;20792;-76
2022/08/26 01:17:57;;;;;;;62.77;56.07;;;21.00;99.90;;;;;;4936734;29;20920;-78
2022/08/26 01:20:30;;;;;;;61.20;54.60;;;20.90;99.90;;;;;;4936331;29;20465;-78
2022/08/26 01:23:04;;;;;;;59.17;53.17;;;20.90;99.90;;;;;;4935320;29;20508;-75
2022/08/26 01:25:32;;;;;;;57.00;50.90;;;20.90;99.90;;;;;;4936756;29;20421;-79
2022/08/26 01:28:04;;;;;;;58.73;51.60;;;20.80;99.90;;;;;;4936654;29;20413;-78
2022/08/26 01:30:31;;;;;;;62.43;55.37;;;20.80;99.90;;;;;;4936058;29;20441;-76
2022/08/26 01:32:59;;;;;;;63.33;52.03;;;20.80;99.90;;;;;;4934072;29;20432;-78
2022/08/26 01:35:25;;;;;;;55.57;49.83;;;20.70;99.90;;;;;;4935130;29;20783;-78
2022/08/26 01:37:53;;;;;;;57.90;51.80;;;20.70;99.90;;;;;;4936365;29;20417;-76
2022/08/26 01:40:28;;;;;;;54.83;49.20;;;20.60;99.90;;;;;;4935939;29;21013;-76
2022/08/26 01:42:53;;;;;;;52.77;47.43;;;20.60;99.90;;;;;;4936118;29;20500;-78
2022/08/26 01:45:24;;;;;;;54.33;48.90;;;20.60;99.90;;;;;;4936254;29;20529;-77
2022/08/26 01:47:52;;;;;;;51.90;46.53;;;20.50;99.90;;;;;;4935003;29;20492;-76
2022/08/26 01:50:23;;;;;;;53.57;47.90;;;20.60;99.90;;;;;;4934705;29;20477;-76
2022/08/26 01:52:50;;;;;;;52.20;46.80;;;20.60;99.90;;;;;;4936288;29;20461;-78
2022/08/26 01:55:17;;;;;;;53.37;47.57;;;20.50;99.90;;;;;;4936059;29;20509;-79
2022/08/26 01:57:46;;;;;;;49.97;44.80;;;20.60;99.90;;;;;;4935018;29;20434;-80
2022/08/26 02:00:13;;;;;;;48.77;43.57;;;20.50;99.90;;;;;;4935619;29;20531;-78
2022/08/26 02:02:44;;;;;;;49.00;40.90;;;20.50;99.90;;;;;;4936024;29;20918;-76
2022/08/26 02:05:15;;;;;;;47.53;41.40;;;20.40;99.90;;;;;;4934864;29;20930;-78
2022/08/26 02:07:42;;;;;;;48.50;43.40;;;20.40;99.90;;;;;;4936164;29;20414;-75
2022/08/26 02:10:09;;;;;;;49.33;44.30;;;20.50;99.90;;;;;;4935739;29;20544;-76
2022/08/26 02:12:35;;;;;;;49.80;44.57;;;20.50;99.90;;;;;;4935990;29;20430;-74
2022/08/26 02:15:05;;;;;;;50.97;42.60;;;20.50;99.90;;;;;;4936009;29;20414;-79
2022/08/26 02:17:41;;;;;;;51.87;44.33;;;20.50;99.90;;;;;;4935876;29;20418;-78
2022/08/26 02:20:09;;;;;;;50.37;45.17;;;20.50;99.90;;;;;;4935505;29;20457;-77
2022/08/26 02:22:35;;;;;;;56.83;46.23;;;20.60;99.90;;;;;;4934643;29;20993;-78
2022/08/26 02:25:29;;;;;;;55.17;43.13;;;20.50;99.90;;;;;;4918853;29;20569;-77
2022/08/26 02:27:55;;;;;;;44.40;39.60;;;20.50;99.90;;;;;;4935584;29;20194;-77
2022/08/26 02:30:27;;;;;;;48.83;43.90;;;20.50;99.90;;;;;;4934218;29;20465;-75
2022/08/26 02:32:53;;;;;;;51.53;43.10;;;20.60;99.90;;;;;;4935750;29;20426;-74
2022/08/26 02:35:21;;;;;;;56.17;42.67;;;20.50;99.90;;;;;;4935654;29;20536;-78
2022/08/26 02:37:49;;;;;;;44.63;40.20;;;20.60;99.90;;;;;;4935736;29;20414;-75
2022/08/26 02:40:16;;;;;;;45.73;41.03;;;20.60;99.90;;;;;;4935300;29;20469;-77
2022/08/26 02:42:42;;;;;;;47.73;42.57;;;20.60;99.90;;;;;;4935636;29;20425;-77
2022/08/26 02:45:09;;;;;;;50.63;42.30;;;20.60;99.90;;;;;;4936960;29;20437;-77
2022/08/26 02:47:36;;;;;;;46.97;42.20;;;20.60;99.90;;;;;;4938671;29;20186;-76
2022/08/26 02:50:02;;;;;;;46.37;41.00;;;20.60;99.90;;;;;;4939063;29;20432;-77
2022/08/26 02:52:28;;;;;;;47.87;40.77;;;20.60;99.90;;;;;;4939512;29;20418;-75
2022/08/26 02:54:54;;;;;;;48.07;38.87;;;20.60;99.90;;;;;;4939536;29;20518;-78
2022/08/26 02:57:19;;;;;;;45.60;40.80;;;20.60;99.90;;;;;;4939614;29;20225;-80
2022/08/26 02:59:45;;;;;;;46.30;41.43;;;20.60;99.90;;;;;;4921833;29;20559;-77
2022/08/26 03:02:11;;;;;;;48.63;41.07;;;20.60;99.90;;;;;;4938377;29;20271;-75
2022/08/26 03:04:38;;;;;;;46.40;41.70;;;20.60;99.90;;;;;;4939274;29;20237;-75
2022/08/26 03:07:05;;;;;;;46.07;41.50;;;20.60;99.90;;;;;;4939119;29;20269;-79
2022/08/26 03:09:31;;;;;;;46.27;41.30;;;20.70;99.90;;;;;;4938970;29;20426;-78
2022/08/26 03:11:57;;;;;;;46.80;41.80;;;20.70;99.90;;;;;;4937919;29;20441;-77
2022/08/26 03:14:23;;;;;;;46.43;41.70;;;20.60;99.90;;;;;;4939281;29;20459;-75
2022/08/26 03:16:51;;;;;;;48.27;40.87;;;20.60;99.90;;;;;;4938998;29;20426;-76
2022/08/26 03:19:17;;;;;;;44.90;40.00;;;20.60;99.90;;;;;;4937523;29;20469;-77
2022/08/26 03:21:43;;;;;;;47.97;42.30;;;20.60;99.90;;;;;;4938492;29;20757;-77
2022/08/26 03:24:12;;;;;;;47.73;39.87;;;20.70;99.90;;;;;;4938890;29;20433;-78
2022/08/26 03:26:38;;;;;;;43.80;39.20;;;20.50;99.90;;;;;;4938807;29;20468;-75
2022/08/26 03:31:49;;;;;;;45.63;38.70;;;20.60;99.90;;;;;;4938399;29;20444;-77
2022/08/26 03:34:17;;;;;;;43.60;38.60;;;20.60;99.90;;;;;;4938590;29;20410;-77
2022/08/26 03:36:43;;;;;;;41.57;36.23;;;20.70;99.90;;;;;;4937318;29;20241;-76
2022/08/26 03:39:10;;;;;;;48.37;38.10;;;20.60;99.90;;;;;;4938536;29;20881;-75
2022/08/26 03:41:35;;;;;;;41.70;37.47;;;20.60;99.90;;;;;;4938067;29;20815;-77
2022/08/26 03:44:03;;;;;;;47.37;37.93;;;20.70;99.90;;;;;;4937115;29;20424;-77
2022/08/26 03:46:31;;;;;;;41.37;35.53;;;20.70;99.90;;;;;;4938344;29;20193;-78
2022/08/26 03:48:59;;;;;;;41.50;35.07;;;20.60;99.90;;;;;;4938383;29;20418;-76
2022/08/26 03:51:24;;;;;;;43.13;33.33;;;20.60;99.90;;;;;;4936661;29;20815;-79
2022/08/26 03:53:50;;;;;;;36.10;30.57;;;20.60;99.90;;;;;;4938206;29;20426;-79
2022/08/26 03:56:16;;;;;;;39.20;34.23;;;20.60;99.90;;;;;;4935917;29;20678;-77
2022/08/26 03:58:43;;;;;;;39.40;32.80;;;20.50;99.90;;;;;;4905231;29;20245;-77
2022/08/26 04:01:10;;;;;;;44.57;34.60;;;20.50;99.90;;;;;;4937674;29;20224;-78
2022/08/26 04:06:21;;;;;;;37.67;32.67;;;20.60;99.90;;;;;;4938575;29;20421;-74
2022/08/26 04:08:47;;;;;;;32.47;28.87;;;20.60;99.90;;;;;;4937716;29;20442;-74
2022/08/26 04:11:20;;;;;;;39.80;32.40;;;20.60;99.90;;;;;;4937625;29;20462;-77
2022/08/26 04:13:47;;;;;;;37.00;29.90;;;20.50;99.90;;;;;;4920680;29;20656;-74
2022/08/26 04:16:15;;;;;;;36.73;31.67;;;20.50;99.90;;;;;;4937677;29;20445;-76
2022/08/26 04:18:41;;;;;;;40.17;31.27;;;20.70;99.90;;;;;;4937806;29;20838;-76
2022/08/26 04:21:07;;;;;;;33.57;29.50;;;20.70;99.90;;;;;;4937264;29;20506;-77
2022/08/26 04:23:33;;;;;;;35.97;31.50;;;20.60;99.90;;;;;;4936412;29;20429;-75
2022/08/26 04:26:00;;;;;;;38.00;31.03;;;20.60;99.90;;;;;;4936353;29;20414;-74
2022/08/26 04:28:27;;;;;;;33.00;29.03;;;20.60;99.90;;;;;;4937513;29;20557;-74
2022/08/26 04:30:52;;;;;;;33.13;29.10;;;20.60;99.90;;;;;;4935978;29;20444;-75
2022/08/26 04:33:18;;;;;;;30.87;27.47;;;20.50;99.90;;;;;;4936411;29;20517;-74
2022/08/26 04:35:44;;;;;;;33.53;28.20;;;20.50;99.90;;;;;;4937479;29;20265;-75
2022/08/26 04:38:10;;;;;;;33.00;28.13;;;20.60;99.90;;;;;;4920395;29;20185;-76
2022/08/26 04:40:36;;;;;;;31.27;26.27;;;20.60;99.90;;;;;;4936864;29;20280;-77
2022/08/26 04:43:02;;;;;;;35.23;27.53;;;20.60;99.90;;;;;;4935961;29;20418;-76
2022/08/26 04:45:27;;;;;;;41.13;37.13;;;20.60;99.90;;;;;;4935936;29;21018;-76
2022/08/26 04:47:55;;;;;;;30.40;26.67;;;20.50;99.90;;;;;;4937263;29;20620;-77
2022/08/26 04:50:22;;;;;;;27.30;24.60;;;20.50;99.90;;;;;;4935463;29;20206;-75
2022/08/26 04:52:48;;;;;;;28.17;23.40;;;20.50;99.90;;;;;;4937164;29;20429;-74
2022/08/26 04:55:14;;;;;;;29.10;23.80;;;20.60;99.90;;;;;;4935916;29;20508;-77
2022/08/26 04:57:40;;;;;;;34.13;23.50;;;20.60;99.90;;;;;;4937343;29;20189;-79
2022/08/26 05:00:12;;;;;;;26.57;23.83;;;20.60;99.90;;;;;;4937109;29;20461;-75
2022/08/26 05:02:38;;;;;;;25.40;22.53;;;20.50;99.90;;;;;;4956012;28;20198;-75
2022/08/26 05:05:05;;;;;;;30.93;23.80;;;20.50;99.90;;;;;;4956174;28;20453;-76
2022/08/26 05:07:34;;;;;;;37.13;22.90;;;20.60;99.90;;;;;;4955979;28;20508;-77
2022/08/26 05:10:01;;;;;;;24.83;21.17;;;20.60;99.90;;;;;;4955703;28;20425;-79
2022/08/26 05:12:28;;;;;;;27.13;22.10;;;20.60;99.90;;;;;;4956010;28;20829;-74
2022/08/26 05:14:54;;;;;;;27.87;21.97;;;20.50;99.90;;;;;;4954737;29;20435;-76
2022/08/26 05:17:20;;;;;;;26.70;20.27;;;20.50;99.90;;;;;;4956054;29;20772;-77
2022/08/26 05:19:46;;;;;;;25.87;19.60;;;20.50;99.90;;;;;;4955603;28;20197;-77
2022/08/26 05:22:13;;;;;;;24.53;19.50;;;20.60;99.90;;;;;;4956140;28;20427;-76
2022/08/26 05:24:40;;;;;;;25.80;21.20;;;20.60;99.90;;;;;;4955557;28;20472;-78
2022/08/26 05:27:06;;;;;;;22.73;20.10;;;20.60;99.90;;;;;;4954422;29;20417;-75
2022/08/26 05:29:32;;;;;;;24.20;19.10;;;20.70;99.90;;;;;;4955943;29;20449;-78
2022/08/26 05:31:59;;;;;;;19.83;17.20;;;20.80;99.90;;;;;;4954067;29;20480;-76
2022/08/26 05:34:25;;;;;;;22.03;17.40;;;20.90;99.90;;;;;;4955518;29;20456;-78
2022/08/26 05:36:51;;;;;;;19.93;18.00;;;20.90;99.90;;;;;;4938514;29;20991;-78
2022/08/26 05:39:17;;;;;;;22.53;16.60;;;20.80;99.90;;;;;;4954393;28;20289;-77
2022/08/26 05:41:43;;;;;;;21.60;16.63;;;20.80;99.90;;;;;;4955282;29;20540;-76
2022/08/26 05:44:12;;;;;;;22.00;15.83;;;20.70;99.90;;;;;;4955773;29;20425;-77
2022/08/26 05:46:39;;;;;;;18.43;16.53;;;20.70;99.90;;;;;;4955402;29;20444;-78
2022/08/26 05:49:06;;;;;;;17.17;14.17;;;20.70;99.90;;;;;;4955302;29;20828;-78
2022/08/26 05:51:32;;;;;;;16.37;14.10;;;20.70;99.90;;;;;;4954484;29;20837;-77
2022/08/26 05:54:00;;;;;;;16.77;12.40;;;20.70;99.90;;;;;;4955134;29;20430;-79
2022/08/26 05:56:26;;;;;;;16.40;13.23;;;20.70;99.90;;;;;;4954943;29;20422;-75
2022/08/26 05:58:53;;;;;;;16.03;14.43;;;20.80;99.90;;;;;;4953111;29;20439;-74
2022/08/26 06:01:22;;;;;;;17.30;13.87;;;20.90;99.90;;;;;;4953790;29;20500;-75
2022/08/26 06:03:53;;;;;;;17.87;13.83;;;20.80;99.90;;;;;;4956574;29;20404;-74
2022/08/26 06:06:24;;;;;;;13.30;11.93;;;20.80;99.90;;;;;;4957184;29;20946;-75
2022/08/26 06:08:51;;;;;;;16.57;13.57;;;20.80;99.90;;;;;;4957804;29;20416;-75
2022/08/26 06:11:20;;;;;;;13.40;12.00;;;20.80;99.90;;;;;;4956400;29;20451;-75
2022/08/26 06:13:46;;;;;;;15.40;12.40;;;20.90;99.90;;;;;;4956827;29;20412;-74
2022/08/26 06:16:16;;;;;;;18.67;12.10;;;20.80;99.90;;;;;;4956322;29;20916;-75
2022/08/26 06:18:44;;;;;;;17.40;12.50;;;20.90;99.90;;;;;;4955561;28;20181;-75
2022/08/26 06:21:26;;;;;;;13.47;11.70;;;20.80;99.90;;;;;;4958453;29;20500;-75
2022/08/26 06:26:40;;;;;;;11.03;9.90;;;21.00;99.90;;;;;;4959337;29;20439;-75
2022/08/26 06:29:07;;;;;;;14.10;10.90;;;21.00;99.90;;;;;;4958877;29;20405;-75
2022/08/26 06:31:34;;;;;;;12.20;9.30;;;21.10;99.90;;;;;;4958519;29;20439;-75
2022/08/26 06:34:00;;;;;;;14.93;10.23;;;21.30;99.90;;;;;;4959185;29;20413;-75
2022/08/26 06:36:32;;;;;;;14.43;9.30;;;21.30;99.90;;;;;;4959236;29;20937;-75
2022/08/26 06:39:08;;;;;;;13.00;9.40;;;21.30;99.90;;;;;;4957763;29;20417;-76
2022/08/26 06:41:34;;;;;;;15.20;9.87;;;21.30;99.90;;;;;;4959352;29;20448;-75
2022/08/26 06:44:01;;;;;;;12.17;9.00;;;21.40;99.90;;;;;;4959331;29;20832;-76
2022/08/26 06:46:27;;;;;;;13.30;9.03;;;21.30;99.90;;;;;;4958648;29;20475;-75
2022/08/26 06:48:54;;;;;;;19.43;8.70;;;21.40;99.90;;;;;;4958657;29;20423;-76
2022/08/26 06:51:22;;;;;;;14.57;9.20;;;21.30;99.90;;;;;;4958207;29;20448;-75
2022/08/26 06:53:50;;;;;;;13.53;9.70;;;21.40;99.90;;;;;;4958636;29;20914;-76
2022/08/26 06:56:21;;;;;;;14.20;10.23;;;21.30;99.90;;;;;;4958819;28;20420;-75
2022/08/26 06:58:47;;;;;;;14.87;8.80;;;21.30;99.90;;;;;;4958650;29;20944;-75
2022/08/26 07:01:21;;;;;;;11.10;9.40;;;21.30;99.90;;;;;;4956698;29;21004;-75
2022/08/26 07:03:49;;;;;;;10.60;9.10;;;21.30;99.90;;;;;;4958195;29;20499;-75
2022/08/26 07:06:18;;;;;;;10.27;9.20;;;21.30;99.90;;;;;;4958047;29;20798;-75
2022/08/26 07:08:47;;;;;;;14.90;10.00;;;21.40;99.90;;;;;;4957796;29;20501;-76
2022/08/26 07:11:13;;;;;;;12.47;8.30;;;21.40;99.90;;;;;;4957327;28;20844;-76
2022/08/26 07:13:39;;;;;;;9.50;8.07;;;21.50;99.90;;;;;;4957735;28;20433;-76
2022/08/26 07:16:11;;;;;;;9.27;7.93;;;21.40;99.90;;;;;;4957763;29;20432;-76
2022/08/26 07:18:38;;;;;;;9.17;7.90;;;21.40;99.90;;;;;;4948377;29;20526;-76
2022/08/26 07:21:06;;;;;;;11.40;8.00;;;21.30;99.90;;;;;;4957301;29;20594;-76
2022/08/26 07:23:32;;;;;;;14.30;8.07;;;21.40;99.90;;;;;;4957388;28;20515;-76
2022/08/26 07:25:58;;;;;;;17.07;9.60;;;21.50;99.90;;;;;;4954921;29;20421;-76
2022/08/26 07:28:24;;;;;;;16.63;8.97;;;21.40;99.90;;;;;;4957035;29;20424;-77
2022/08/26 07:30:50;;;;;;;9.17;8.30;;;21.40;99.90;;;;;;4956969;28;20476;-76
2022/08/26 07:33:16;;;;;;;13.53;9.23;;;21.50;99.90;;;;;;4957609;29;20192;-76
2022/08/26 07:35:43;;;;;;;14.97;9.73;;;21.50;99.90;;;;;;4956541;29;20189;-76
2022/08/26 07:38:09;;;;;;;11.90;7.77;;;21.40;99.90;;;;;;4957979;28;20920;-75
2022/08/26 07:40:36;;;;;;;10.50;9.40;;;21.40;99.90;;;;;;4956119;28;20498;-75
2022/08/26 07:43:02;;;;;;;11.43;8.83;;;21.40;99.90;;;;;;4957828;28;20413;-76
2022/08/26 07:45:27;;;;;;;12.83;9.30;;;21.30;99.90;;;;;;4956195;29;20444;-76
2022/08/26 07:47:53;;;;;;;11.03;8.13;;;21.40;99.90;;;;;;4957458;29;20724;-78
2022/08/26 07:50:21;;;;;;;12.53;8.13;;;21.50;99.90;;;;;;4957134;28;20743;-78
2022/08/26 07:52:47;;;;;;;13.33;9.77;;;21.60;99.90;;;;;;4957849;29;20201;-79
2022/08/26 07:55:13;;;;;;;13.30;10.17;;;21.50;99.90;;;;;;4958795;28;20484;-79
2022/08/26 07:57:39;;;;;;;14.03;10.67;;;21.50;99.90;;;;;;4957338;28;20906;-76
2022/08/26 08:00:08;;;;;;;16.87;12.93;;;21.50;99.90;;;;;;4957106;28;20514;-78
2022/08/26 08:02:35;;;;;;;14.37;11.37;;;21.50;99.90;;;;;;4957397;28;20248;-77
2022/08/26 08:05:01;;;;;;;10.97;9.77;;;21.40;99.90;;;;;;4957261;29;20455;-75
2022/08/26 08:07:28;;;;;;;11.50;10.30;;;21.40;99.90;;;;;;4940092;29;20412;-77
2022/08/26 08:09:53;;;;;;;14.23;10.33;;;21.40;99.90;;;;;;4955552;28;20193;-75
2022/08/26 08:12:19;;;;;;;11.53;9.60;;;21.40;99.90;;;;;;4956583;29;20435;-77
2022/08/26 08:14:47;;;;;;;13.63;9.40;;;21.40;99.90;;;;;;4957686;29;20188;-74
2022/08/26 08:17:13;;;;;;;12.93;8.40;;;21.40;99.90;;;;;;4957775;28;20417;-75
2022/08/26 08:19:39;;;;;;;11.83;8.97;;;21.50;99.90;;;;;;4956109;29;20457;-76
2022/08/26 08:22:06;;;;;;;10.67;7.83;;;21.40;99.90;;;;;;4956559;28;20456;-76
2022/08/26 08:24:33;;;;;;;14.47;7.90;;;21.50;99.90;;;;;;4956904;28;20417;-76
2022/08/26 08:27:00;;;;;;;10.20;6.93;;;21.50;99.90;;;;;;4957074;29;20441;-77
2022/08/26 08:29:28;;;;;;;12.23;7.07;;;21.50;99.90;;;;;;4957321;28;20875;-77
2022/08/26 08:31:55;;;;;;;12.73;5.90;;;21.50;99.90;;;;;;4956451;28;20460;-75
2022/08/26 08:34:21;;;;;;;8.57;6.30;;;21.60;99.90;;;;;;4955569;29;20997;-77
2022/08/26 08:36:46;;;;;;;9.83;7.63;;;21.60;99.90;;;;;;4955470;29;20429;-76
2022/08/26 08:39:12;;;;;;;9.13;6.67;;;21.60;99.90;;;;;;4956587;29;20186;-75
2022/08/26 08:41:50;;;;;;;13.00;7.70;;;21.70;99.90;;;;;;4955587;28;20241;-77
2022/08/26 08:44:19;;;;;;;9.13;6.80;;;21.70;99.90;;;;;;4956369;28;20420;-74
2022/08/26 08:46:53;;;;;;;9.10;5.83;;;21.80;99.90;;;;;;4956374;28;20433;-77
2022/08/26 08:49:19;;;;;;;10.00;6.27;;;21.90;99.90;;;;;;4955337;29;20508;-78
2022/08/26 08:52:05;;;;;;;7.43;5.90;;;21.90;99.90;;;;;;4956003;28;20511;-75
2022/08/26 08:54:32;;;;;;;10.63;6.90;;;22.00;99.90;;;;;;4956418;28;20746;-74
2022/08/26 08:57:09;;;;;;;10.20;6.30;;;21.90;99.90;;;;;;4956271;28;20424;-76
2022/08/26 08:59:44;;;;;;;15.97;8.30;;;21.90;99.90;;;;;;4956101;28;20842;-77
2022/08/26 09:02:33;;;;;;;10.10;8.30;;;21.60;99.90;;;;;;4954813;28;20507;-76
2022/08/26 09:05:21;;;;;;;15.50;8.83;;;21.50;99.90;;;;;;4955089;29;20961;-75
2022/08/26 09:07:52;;;;;;;9.17;7.40;;;21.50;99.90;;;;;;4956182;28;20493;-73
2022/08/26 09:10:30;;;;;;;9.63;8.40;;;21.40;99.90;;;;;;4955460;28;20917;-77
2022/08/26 09:12:56;;;;;;;11.10;8.50;;;21.40;99.90;;;;;;4956220;28;20409;-74
2022/08/26 09:15:41;;;;;;;9.80;7.40;;;21.50;99.90;;;;;;4956200;28;20452;-75
2022/08/26 09:18:28;;;;;;;12.37;8.73;;;21.50;99.90;;;;;;4956994;28;20449;-76
2022/08/26 09:20:53;;;;;;;9.17;8.03;;;21.60;99.90;;;;;;4957032;28;20468;-73
2022/08/26 09:23:19;;;;;;;15.27;8.57;;;21.70;99.90;;;;;;4958598;29;20484;-76
2022/08/26 09:25:47;;;;;;;9.80;7.00;;;21.60;99.90;;;;;;4956981;29;20237;-75
2022/08/26 09:28:17;;;;;;;13.70;7.90;;;21.50;99.90;;;;;;4955657;28;20256;-77
2022/08/26 09:30:45;;;;;;;9.83;6.80;;;21.60;99.90;;;;;;4957418;28;20432;-75
2022/08/26 09:33:16;;;;;;;11.60;8.30;;;21.60;99.90;;;;;;4955851;28;20418;-76
2022/08/26 09:35:46;;;;;;;12.20;9.17;;;21.70;99.90;;;;;;4955637;28;20413;-74
2022/08/26 09:38:32;;;;;;;11.47;9.17;;;21.80;99.90;;;;;;4955969;28;20413;-77
2022/08/26 09:41:18;;;;;;;11.17;8.83;;;21.80;99.90;;;;;;4955282;28;20945;-76
2022/08/26 09:44:07;;;;;;;11.27;8.20;;;21.80;99.90;;;;;;4955561;28;20956;-76
2022/08/26 09:46:33;;;;;;;10.50;7.47;;;21.70;99.90;;;;;;4955351;28;20805;-75
2022/08/26 09:49:29;;;;;;;9.97;7.20;;;21.90;99.90;;;;;;4954293;29;20433;-75
2022/08/26 09:52:03;;;;;;;13.27;6.90;;;22.00;99.90;;;;;;4955094;28;20847;-76
2022/08/26 09:54:29;;;;;;;7.63;6.60;;;22.10;99.90;;;;;;4954453;28;20802;-75
2022/08/26 09:57:15;;;;;;;11.30;5.30;;;22.10;99.90;;;;;;4955129;29;20417;-75
2022/08/26 09:59:41;;;;;;;9.43;6.67;;;22.10;99.90;;;;;;4955258;28;20200;-78
2022/08/26 10:02:31;;;;;;;12.27;6.03;;;22.10;99.90;;;;;;4955274;28;20850;-77
2022/08/26 10:04:59;;;;;;;9.53;5.90;;;22.00;99.90;;;;;;4954487;29;20516;-76
2022/08/26 10:07:39;;;;;;;6.50;5.10;;;21.90;99.90;;;;;;4955424;28;20421;-73
2022/08/26 10:10:09;;;;;;;11.07;6.07;;;22.00;99.90;;;;;;4954358;28;20421;-77
2022/08/26 10:12:41;;;;;;;13.33;7.50;;;22.10;99.90;;;;;;4955316;28;20412;-76
2022/08/26 10:15:09;;;;;;;7.90;6.67;;;22.10;99.90;;;;;;4955562;28;20505;-76
2022/08/26 10:18:01;;;;;;;9.63;6.50;;;22.20;99.90;;;;;;4955423;28;20414;-78
2022/08/26 10:20:34;;;;;;;11.67;8.67;;;22.30;99.90;;;;;;4931901;28;20479;-77
2022/08/26 10:23:04;;;;;;;8.43;6.27;;;22.30;99.90;;;;;;4955091;28;20496;-77
2022/08/26 10:25:53;;;;;;;11.17;6.43;;;22.30;99.90;;;;;;4955186;28;20413;-77
2022/08/26 10:28:30;;;;;;;10.33;5.87;;;22.30;99.90;;;;;;4955045;28;20397;-75
2022/08/26 10:31:25;;;;;;;6.70;5.90;;;22.20;99.90;;;;;;4954456;28;20480;-76
2022/08/26 10:33:51;;;;;;;6.97;5.10;;;22.40;99.90;;;;;;4955051;28;20412;-75
2022/08/26 10:39:08;;;;;;;9.57;5.47;;;22.70;99.90;;;;;;4954765;29;20403;-78
2022/08/26 10:41:40;;;;;;;7.40;5.50;;;22.60;99.90;;;;;;4954357;28;21001;-74
2022/08/26 10:44:09;;;;;;;8.03;4.63;;;22.70;99.90;;;;;;4954924;28;20425;-77
2022/08/26 10:46:43;;;;;;;10.27;5.93;;;22.80;99.90;;;;;;4955114;28;20447;-77
2022/08/26 10:49:12;;;;;;;7.57;5.00;;;22.90;99.90;;;;;;4953628;29;20499;-76
2022/08/26 10:51:50;;;;;;;9.90;5.37;;;23.10;99.90;;;;;;4954347;28;20441;-76
2022/08/26 10:54:42;;;;;;;10.10;5.77;;;23.00;99.90;;;;;;4954801;28;20771;-77
2022/08/26 10:57:56;;;;;;;8.50;5.13;;;22.80;99.90;;;;;;4954435;28;20417;-77
2022/08/26 11:03:30;;;;;;;6.37;3.67;;;22.80;99.90;;;;;;4895702;29;20466;-77
2022/08/26 11:06:34;;;;;;;8.37;4.03;;;22.60;99.90;;;;;;4941694;28;20536;-77
2022/08/26 11:09:02;;;;;;;5.77;3.63;;;22.60;99.90;;;;;;4955514;28;20791;-76
2022/08/26 11:11:40;;;;;;;8.33;4.77;;;22.60;99.90;;;;;;4957670;28;20868;-76
2022/08/26 11:14:08;;;;;;;7.90;3.83;;;22.50;99.90;;;;;;4956792;29;20933;-77
2022/08/26 11:16:44;;;;;;;8.07;4.57;;;22.50;99.90;;;;;;4958312;28;20757;-77
2022/08/26 11:19:30;;;;;;;4.77;3.60;;;22.60;99.90;;;;;;4958022;28;20415;-76
2022/08/26 11:22:21;;;;;;;5.80;4.17;;;22.60;99.90;;;;;;4957842;28;20456;-77
2022/08/26 11:24:56;;;;;;;4.40;3.40;;;22.30;99.90;;;;;;4957053;29;20417;-76
2022/08/26 11:27:24;;;;;;;6.00;3.60;;;22.30;99.90;;;;;;4958016;29;20424;-75
2022/08/26 11:30:07;;;;;;;6.00;3.50;;;22.50;99.90;;;;;;4957369;28;20453;-76
2022/08/26 11:32:33;;;;;;;7.20;3.17;;;22.40;99.90;;;;;;4956462;29;20479;-74
2022/08/26 11:35:15;;;;;;;11.40;4.83;;;22.50;99.90;;;;;;4957952;29;20428;-74
2022/08/26 11:37:47;;;;;;;9.30;3.90;;;22.40;99.90;;;;;;4957711;29;20997;-77
2022/08/26 11:40:29;;;;;;;10.17;4.13;;;22.60;99.90;;;;;;4957472;28;20477;-76
2022/08/26 11:42:59;;;;;;;9.93;4.93;;;22.50;99.90;;;;;;4957606;28;20421;-75
2022/08/26 11:45:38;;;;;;;8.03;4.00;;;22.40;99.90;;;;;;4957486;28;20515;-78
2022/08/26 11:48:24;;;;;;;9.57;3.57;;;22.50;99.90;;;;;;4957611;28;20443;-77
2022/08/26 11:50:59;;;;;;;5.90;3.83;;;22.60;99.90;;;;;;4959248;28;20432;-75
2022/08/26 11:53:26;;;;;;;10.23;4.20;;;22.60;99.90;;;;;;4961560;28;20420;-77
2022/08/26 11:55:55;;;;;;;6.70;3.87;;;22.60;99.90;;;;;;4961532;28;20416;-76
2022/08/26 11:58:23;;;;;;;8.37;4.40;;;22.50;99.90;;;;;;4961753;28;20479;-77
2022/08/26 12:00:54;;;;;;;7.73;4.50;;;22.50;99.90;;;;;;4961167;28;20542;-77
2022/08/26 12:03:24;;;;;;;8.77;3.63;;;22.50;99.90;;;;;;4957501;29;20424;-79
2022/08/26 12:05:51;;;;;;;12.47;4.37;;;22.60;99.90;;;;;;4960159;29;20790;-78
2022/08/26 12:08:22;;;;;;;8.73;4.03;;;22.60;99.90;;;;;;4961131;29;20726;-75
2022/08/26 12:10:48;;;;;;;11.70;4.40;;;22.60;99.90;;;;;;4962896;28;20436;-76
2022/08/26 12:13:23;;;;;;;13.90;4.60;;;22.40;99.90;;;;;;4945353;29;20847;-76
2022/08/26 12:15:57;;;;;;;14.27;4.57;;;22.30;99.90;;;;;;4961638;29;20471;-75
2022/08/26 12:18:32;;;;;;;8.53;4.07;;;22.20;99.90;;;;;;4961746;28;20452;-75
2022/08/26 12:21:00;;;;;;;10.13;4.23;;;22.20;99.90;;;;;;4962398;28;20468;-76
2022/08/26 12:23:35;;;;;;;10.63;4.50;;;22.20;99.90;;;;;;4960751;29;20988;-77
2022/08/26 12:26:08;;;;;;;10.27;4.00;;;22.30;99.90;;;;;;4961379;28;20407;-76
2022/08/26 12:28:42;;;;;;;6.60;3.80;;;22.30;99.90;;;;;;4960016;28;20472;-78
2022/08/26 12:31:08;;;;;;;9.60;4.20;;;22.30;99.90;;;;;;4958069;28;20481;-75
2022/08/26 12:33:35;;;;;;;8.30;4.13;;;22.30;99.90;;;;;;4957569;28;20800;-77
2022/08/26 12:36:03;;;;;;;6.60;4.13;;;22.40;99.90;;;;;;4955300;29;20432;-76
2022/08/26 12:38:29;;;;;;;17.20;3.93;;;22.20;99.90;;;;;;4956556;28;20922;-78
2022/08/26 12:40:55;;;;;;;9.47;4.00;;;22.10;99.90;;;;;;4956165;28;20484;-77
2022/08/26 12:43:42;;;;;;;10.60;4.17;;;22.20;99.90;;;;;;4956317;28;20440;-78
2022/08/26 12:46:11;;;;;;;11.13;3.50;;;22.30;99.90;;;;;;4955136;29;20499;-78
2022/08/26 12:48:42;;;;;;;5.43;3.30;;;22.30;99.90;;;;;;4956344;28;20508;-77
2022/08/26 12:51:18;;;;;;;6.47;3.03;;;22.30;99.90;;;;;;4956092;28;20428;-74
2022/08/26 12:53:44;;;;;;;9.10;3.83;;;22.30;99.90;;;;;;4956388;28;20419;-78
2022/08/26 12:56:39;;;;;;;12.40;4.13;;;22.30;99.90;;;;;;4956164;29;20519;-77
2022/08/26 12:59:16;;;;;;;9.43;3.47;;;22.20;99.90;;;;;;4943712;28;20189;-77
2022/08/26 13:01:43;;;;;;;9.97;3.17;;;22.30;99.90;;;;;;4955726;28;20936;-79